Hillburn, New York
Current Conditions -  °F | °C
As of 5:53 AM on Sunday 23 Nov 2014 (Local Time) from KCDW Reporting Station
Overcast Overcast  
Wind Chill:   Ceiling: 8500
Heat Index:   Visibility: 10mi
Dew Point: -7°   Wind: 6mph
Humidity: 43%   Direction: 230°SW
Pressure: 30.19"   Gusts: NA
Location:  41.12°N, 74.17°W
Report Text: KCDW 231053Z AUTO 23005KT 10SM OVC085 05/M07 A3019 RMK AO2 SLP229 T00501067 TSNO
Loading
Personal Weather Stations






























Interactive Weather Map New forecast layout! Learn more

10-Day Weather Forecast

Advertisements
Track Severe Weather on mobile